Time;durP1;ratioP1;P1;durP2;ratioP2;P2;SDS_P1;SDS_P2;PMS_P1;PMS_P2;Temp;Humidity;BMP_temperature;BMP_pressure;BME280_temperature;BME280_humidity;BME280_pressure;Samples;Min_cycle;Max_cycle;Signal;HPM_P1;HPM_P2
2023/01/15 00:01:35;;;;;;;8.43;2.70;;;6.40;99.90;;;;;;4971519;28;20092;-84
2023/01/15 00:04:02;;;;;;;13.60;2.28;;;6.40;99.90;;;;;;4988983;28;20039;-84
2023/01/15 00:06:29;;;;;;;8.73;2.30;;;6.40;99.90;;;;;;4978040;28;20172;-85
2023/01/15 00:08:55;;;;;;;11.23;2.53;;;6.40;99.90;;;;;;4992794;28;20552;-84
2023/01/15 00:11:21;;;;;;;9.85;2.40;;;6.50;99.90;;;;;;4998735;28;20039;-84
2023/01/15 00:13:48;;;;;;;10.68;3.00;;;6.40;99.90;;;;;;4973959;28;20038;-84
2023/01/15 00:16:22;;;;;;;11.73;3.22;;;6.40;99.90;;;;;;5009104;28;20046;-84
2023/01/15 00:18:55;;;;;;;;;;;6.40;99.90;;;;;;4987772;28;20035;-84
2023/01/15 00:21:22;;;;;;;7.97;2.40;;;6.40;99.90;;;;;;4977374;28;20297;-85
2023/01/15 00:29:17;;;;;;;;;;;6.40;99.90;;;;;;5020531;28;20060;-84
2023/01/15 00:31:50;;;;;;;8.25;2.80;;;6.50;99.90;;;;;;4981816;28;19922;-84
2023/01/15 00:34:16;;;;;;;7.57;2.57;;;6.50;99.90;;;;;;4988024;28;20043;-84
2023/01/15 00:36:42;;;;;;;10.85;2.50;;;6.50;99.90;;;;;;5003306;28;20800;-84
2023/01/15 00:39:07;;;;;;;13.10;2.60;;;6.50;99.90;;;;;;4989045;28;20042;-84
2023/01/15 00:41:33;;;;;;;15.50;2.58;;;6.50;99.90;;;;;;5000966;28;20133;-84
2023/01/15 00:43:59;;;;;;;14.30;3.08;;;6.50;99.90;;;;;;4988369;28;20050;-84
2023/01/15 00:46:24;;;;;;;9.88;2.50;;;6.50;99.90;;;;;;4991262;28;20089;-84
2023/01/15 00:48:50;;;;;;;11.50;2.40;;;6.50;99.90;;;;;;4993782;28;20042;-84
2023/01/15 00:51:15;;;;;;;10.18;2.35;;;6.50;99.90;;;;;;5009996;28;20556;-84
2023/01/15 00:53:41;;;;;;;12.45;2.90;;;6.50;99.90;;;;;;4999584;28;20121;-84
2023/01/15 00:56:07;;;;;;;12.48;2.80;;;6.50;99.90;;;;;;4988200;28;20083;-84
2023/01/15 00:58:33;;;;;;;10.55;2.70;;;6.40;99.90;;;;;;5009400;28;20050;-84
2023/01/15 01:00:59;;;;;;;10.60;3.13;;;6.40;99.90;;;;;;4972159;28;20043;-84
2023/01/15 01:03:26;;;;;;;10.65;3.28;;;6.40;99.90;;;;;;4987151;28;20103;-84
2023/01/15 01:05:51;;;;;;;13.70;2.25;;;6.40;99.90;;;;;;4970460;28;20043;-84
2023/01/15 01:08:18;;;;;;;18.17;2.95;;;6.40;99.90;;;;;;4976093;28;20046;-84
2023/01/15 01:10:43;;;;;;;16.40;3.10;;;6.40;99.90;;;;;;4983356;28;20425;-84
2023/01/15 01:13:09;;;;;;;11.60;2.45;;;6.30;99.90;;;;;;4970597;28;20038;-84
2023/01/15 01:15:36;;;;;;;12.05;2.88;;;6.30;99.90;;;;;;5006630;28;20482;-84
2023/01/15 01:18:02;;;;;;;13.27;3.05;;;6.40;99.90;;;;;;5010063;28;20486;-84
2023/01/15 01:20:28;;;;;;;12.18;2.95;;;6.40;99.90;;;;;;4970782;28;20046;-84
2023/01/15 01:22:53;;;;;;;11.90;3.10;;;6.40;99.90;;;;;;5014246;28;20032;-84
2023/01/15 01:25:19;;;;;;;11.93;2.65;;;6.40;99.90;;;;;;5005219;28;20475;-84
2023/01/15 01:27:46;;;;;;;13.30;3.00;;;6.40;99.90;;;;;;4995582;28;20042;-84
2023/01/15 01:30:12;;;;;;;15.07;2.50;;;6.40;99.90;;;;;;4967113;28;20442;-84
2023/01/15 01:32:38;;;;;;;11.13;2.67;;;6.40;99.90;;;;;;4966806;28;20514;-84
2023/01/15 01:35:04;;;;;;;14.57;2.60;;;6.40;99.90;;;;;;4989848;28;20042;-84
2023/01/15 01:37:30;;;;;;;11.45;2.72;;;6.40;99.90;;;;;;4969263;28;20103;-84
2023/01/15 01:39:55;;;;;;;10.65;2.70;;;6.40;99.90;;;;;;4972331;28;20042;-84
2023/01/15 01:42:22;;;;;;;7.22;2.47;;;6.40;99.90;;;;;;4981587;28;20577;-84
2023/01/15 01:44:50;;;;;;;13.48;2.70;;;6.40;99.90;;;;;;4982336;28;20098;-84
2023/01/15 01:47:25;;;;;;;14.00;3.08;;;6.40;99.90;;;;;;4982036;28;20456;-84
2023/01/15 01:49:55;;;;;;;14.15;3.28;;;6.40;99.90;;;;;;4986079;28;20482;-84
2023/01/15 01:52:28;;;;;;;9.45;2.42;;;6.40;99.90;;;;;;4969800;28;20039;-84
2023/01/15 01:54:55;;;;;;;9.13;2.60;;;6.30;99.90;;;;;;5014215;28;20038;-84
2023/01/15 01:57:22;;;;;;;11.00;3.00;;;6.40;99.90;;;;;;5001347;28;20069;-84
2023/01/15 01:59:48;;;;;;;17.60;3.00;;;6.40;99.90;;;;;;4990902;28;20088;-84
2023/01/15 02:02:18;;;;;;;14.52;2.50;;;6.40;99.90;;;;;;4998107;28;20034;-84
2023/01/15 02:04:43;;;;;;;11.68;2.28;;;6.40;99.90;;;;;;4974678;28;20046;-84
2023/01/15 02:07:09;;;;;;;14.35;2.80;;;6.40;99.90;;;;;;4969624;28;20034;-84
2023/01/15 02:09:35;;;;;;;11.68;2.63;;;6.40;99.90;;;;;;4998029;28;20053;-84
2023/01/15 02:12:10;;;;;;;15.73;3.45;;;6.40;99.90;;;;;;4984612;28;20038;-84
2023/01/15 02:14:47;;;;;;;10.98;2.50;;;6.40;99.90;;;;;;4972517;28;20064;-84
2023/01/15 02:17:19;;;;;;;14.13;2.67;;;6.40;99.90;;;;;;4990408;28;20046;-84
2023/01/15 02:20:00;;;;;;;11.80;2.83;;;6.40;99.90;;;;;;5005639;28;20056;-84
2023/01/15 02:22:33;;;;;;;15.60;3.35;;;6.40;99.90;;;;;;4961924;28;20088;-84
2023/01/15 02:25:07;;;;;;;9.90;2.67;;;6.40;99.90;;;;;;4982821;28;20061;-85
2023/01/15 02:27:33;;;;;;;15.27;2.83;;;6.40;99.90;;;;;;5003657;28;20404;-84
2023/01/15 02:30:09;;;;;;;15.45;2.78;;;6.40;99.90;;;;;;5014381;28;20048;-84
2023/01/15 02:32:44;;;;;;;9.77;2.90;;;6.40;99.90;;;;;;5001909;28;20053;-84
2023/01/15 02:35:28;;;;;;;14.65;3.08;;;6.50;99.90;;;;;;5016094;28;20049;-84
2023/01/15 02:38:01;;;;;;;13.10;2.70;;;6.50;99.90;;;;;;5013564;28;20046;-85
2023/01/15 02:40:28;;;;;;;12.90;3.13;;;6.50;99.90;;;;;;4970457;28;20054;-84
2023/01/15 02:42:55;;;;;;;8.68;2.72;;;6.50;99.90;;;;;;4989265;28;20043;-84
2023/01/15 02:45:27;;;;;;;10.75;3.08;;;6.50;99.90;;;;;;4968801;28;20054;-84
2023/01/15 02:47:57;;;;;;;11.48;3.05;;;6.50;99.90;;;;;;4977044;28;20141;-84
2023/01/15 02:50:30;;;;;;;15.93;3.10;;;6.50;99.90;;;;;;4989767;28;20042;-84
2023/01/15 02:53:04;;;;;;;15.88;4.15;;;6.50;99.90;;;;;;5023369;28;20122;-84
2023/01/15 02:55:33;;;;;;;13.23;2.80;;;6.50;99.90;;;;;;4987604;28;20061;-84
2023/01/15 02:58:03;;;;;;;12.98;3.25;;;6.50;99.90;;;;;;4970011;28;20389;-84
2023/01/15 03:00:32;;;;;;;17.15;3.35;;;6.40;99.90;;;;;;4995120;28;20062;-84
2023/01/15 03:03:05;;;;;;;11.23;2.60;;;6.40;99.90;;;;;;4977079;28;20043;-84
2023/01/15 03:05:37;;;;;;;11.40;2.78;;;6.50;99.90;;;;;;4985116;28;20050;-84
2023/01/15 03:08:06;;;;;;;10.77;2.70;;;6.50;99.90;;;;;;4972144;28;20071;-84
2023/01/15 03:10:42;;;;;;;11.82;2.75;;;6.50;99.90;;;;;;4967656;28;20046;-84
2023/01/15 03:13:14;;;;;;;13.27;2.90;;;6.50;99.90;;;;;;4967961;28;20047;-84
2023/01/15 03:18:43;;;;;;;13.57;2.92;;;6.50;99.90;;;;;;4982701;28;20050;-84
2023/01/15 03:21:16;;;;;;;11.52;2.92;;;6.60;99.90;;;;;;5011740;28;20058;-84
2023/01/15 03:23:47;;;;;;;15.00;3.45;;;6.60;99.90;;;;;;4976777;28;20042;-84
2023/01/15 03:26:12;;;;;;;13.95;3.15;;;6.60;99.90;;;;;;4988121;28;20051;-84
2023/01/15 03:28:39;;;;;;;9.77;2.33;;;6.60;99.90;;;;;;4988399;28;20494;-84
2023/01/15 03:31:05;;;;;;;11.95;2.70;;;6.60;99.90;;;;;;5008396;28;20069;-84
2023/01/15 03:33:31;;;;;;;13.57;2.55;;;6.60;99.90;;;;;;5002814;28;20068;-84
2023/01/15 03:36:01;;;;;;;13.35;3.55;;;6.60;99.90;;;;;;4996013;28;20046;-84
2023/01/15 03:38:34;;;;;;;10.95;2.85;;;6.60;99.90;;;;;;4992588;28;20058;-84
2023/01/15 03:41:23;;;;;;;13.93;3.00;;;6.60;99.90;;;;;;4968629;28;20065;-84
2023/01/15 03:44:10;;;;;;;8.80;2.53;;;6.60;99.90;;;;;;4993489;28;20090;-84
2023/01/15 03:47:13;;;;;;;13.68;2.55;;;6.60;99.90;;;;;;5018285;28;20509;-85
2023/01/15 03:49:53;;;;;;;13.20;2.42;;;6.60;99.90;;;;;;4994931;28;20069;-84
2023/01/15 03:52:31;;;;;;;17.23;3.00;;;6.60;99.90;;;;;;5007732;28;20043;-84
2023/01/15 03:55:08;;;;;;;12.60;2.97;;;6.50;99.90;;;;;;4968493;28;20043;-84
2023/01/15 03:57:40;;;;;;;12.05;2.47;;;6.50;99.90;;;;;;4977438;28;20046;-84
2023/01/15 04:00:17;;;;;;;15.60;3.38;;;6.50;99.90;;;;;;5002146;28;20045;-84
2023/01/15 04:02:45;;;;;;;11.13;2.63;;;6.50;99.90;;;;;;4977318;28;20048;-84
2023/01/15 04:05:12;;;;;;;12.27;3.42;;;6.50;99.90;;;;;;4990170;28;20135;-85
2023/01/15 04:07:38;;;;;;;11.90;3.63;;;6.50;99.90;;;;;;4968304;28;20038;-84
2023/01/15 04:10:10;;;;;;;9.95;2.65;;;6.50;99.90;;;;;;4980433;28;20038;-84
2023/01/15 04:12:35;;;;;;;11.38;2.60;;;6.40;99.90;;;;;;5013300;28;20514;-84
2023/01/15 04:15:01;;;;;;;10.05;2.50;;;6.30;99.90;;;;;;4984793;28;20158;-84
2023/01/15 04:17:27;;;;;;;10.38;2.90;;;6.30;99.90;;;;;;4963097;28;20049;-84
2023/01/15 04:19:52;;;;;;;12.45;2.80;;;6.30;99.90;;;;;;4995985;28;20396;-84
2023/01/15 04:22:18;;;;;;;15.95;3.13;;;6.20;99.90;;;;;;4965458;28;20042;-84
2023/01/15 04:24:44;;;;;;;9.52;2.80;;;6.20;99.90;;;;;;4972846;28;20134;-84
2023/01/15 04:27:10;;;;;;;11.38;2.80;;;6.30;99.90;;;;;;4970026;28;20068;-84
2023/01/15 04:29:35;;;;;;;12.05;3.10;;;6.20;99.90;;;;;;4996665;28;20064;-84
2023/01/15 04:32:01;;;;;;;11.43;2.65;;;6.30;99.90;;;;;;4983936;28;20042;-84
2023/01/15 04:34:27;;;;;;;14.20;3.05;;;6.30;99.90;;;;;;4968769;28;20046;-84
2023/01/15 04:36:54;;;;;;;15.73;2.97;;;6.30;99.90;;;;;;4995436;28;20038;-84
2023/01/15 04:39:20;;;;;;;12.85;2.85;;;6.30;99.90;;;;;;4995020;28;20038;-84
2023/01/15 04:44:31;;;;;;;11.38;2.85;;;6.20;99.90;;;;;;5007515;28;20130;-84
2023/01/15 04:46:58;;;;;;;11.38;2.83;;;6.20;99.90;;;;;;5041337;28;20699;-84
2023/01/15 04:49:25;;;;;;;10.52;2.90;;;6.20;99.90;;;;;;5028655;28;20038;-85
2023/01/15 04:51:50;;;;;;;11.13;2.60;;;6.20;99.90;;;;;;4998196;28;20046;-84
2023/01/15 04:54:17;;;;;;;15.50;3.28;;;6.30;99.90;;;;;;5004698;28;20034;-85
2023/01/15 04:56:45;;;;;;;13.15;2.65;;;6.30;99.90;;;;;;5005452;28;20060;-84
2023/01/15 04:59:12;;;;;;;12.05;2.70;;;6.30;99.90;;;;;;5008872;28;20046;-84
2023/01/15 05:01:38;;;;;;;14.10;2.50;;;6.20;99.90;;;;;;4987716;28;20028;-84
2023/01/15 05:04:04;;;;;;;15.13;2.75;;;6.20;99.90;;;;;;4968302;28;20485;-84
2023/01/15 05:06:30;;;;;;;18.83;3.30;;;6.10;99.90;;;;;;4970771;28;20088;-84
2023/01/15 05:08:57;;;;;;;15.60;3.03;;;6.10;99.90;;;;;;4974047;28;20050;-84
2023/01/15 05:11:22;;;;;;;11.50;2.75;;;6.00;99.90;;;;;;5029069;28;20054;-84
2023/01/15 05:13:48;;;;;;;15.57;2.63;;;6.00;99.90;;;;;;5037567;28;20058;-84
2023/01/15 05:16:17;;;;;;;16.00;2.83;;;6.00;99.90;;;;;;4970877;28;20049;-85
2023/01/15 05:18:44;;;;;;;13.50;2.63;;;6.00;99.90;;;;;;4998998;28;20421;-84
2023/01/15 05:21:39;;;;;;;16.50;2.97;;;6.00;99.90;;;;;;4988870;28;20085;-84
2023/01/15 05:24:07;;;;;;;10.68;3.38;;;5.90;99.90;;;;;;4985068;28;20054;-84
2023/01/15 05:26:34;;;;;;;9.93;2.53;;;6.00;99.90;;;;;;4996328;28;20156;-85
2023/01/15 05:29:01;;;;;;;16.10;3.55;;;6.00;99.90;;;;;;4975009;28;20041;-85
2023/01/15 05:31:28;;;;;;;13.50;2.97;;;5.90;99.90;;;;;;4999547;28;20124;-84
2023/01/15 05:33:54;;;;;;;14.82;3.35;;;5.90;99.90;;;;;;5020966;28;20044;-85
2023/01/15 05:36:23;;;;;;;10.82;3.20;;;5.80;99.90;;;;;;4994797;28;20050;-84
2023/01/15 05:38:49;;;;;;;10.60;2.50;;;5.80;99.90;;;;;;4993565;28;20053;-84
2023/01/15 05:44:04;;;;;;;12.75;2.95;;;5.70;99.90;;;;;;5024160;28;20157;-85
2023/01/15 05:46:32;;;;;;;8.63;2.63;;;5.80;99.90;;;;;;5015387;28;20046;-84
2023/01/15 05:49:03;;;;;;;9.88;3.10;;;5.80;99.90;;;;;;4979260;28;20048;-85
2023/01/15 05:51:28;;;;;;;11.95;2.85;;;5.80;99.90;;;;;;4982762;28;20043;-85
2023/01/15 05:53:58;;;;;;;12.40;2.53;;;5.80;99.90;;;;;;5008386;28;20043;-84
2023/01/15 05:56:23;;;;;;;11.10;2.53;;;5.70;99.90;;;;;;4970428;28;20108;-84
2023/01/15 05:58:49;;;;;;;14.35;3.00;;;5.70;99.90;;;;;;5025985;28;20047;-84
2023/01/15 06:01:15;;;;;;;12.02;2.83;;;5.70;99.90;;;;;;4987493;28;20074;-84
2023/01/15 06:03:41;;;;;;;7.82;2.40;;;5.60;99.90;;;;;;4994968;28;20101;-85
2023/01/15 06:06:13;;;;;;;14.27;2.78;;;5.60;99.90;;;;;;4968670;28;20074;-84
2023/01/15 06:08:38;;;;;;;12.10;2.85;;;5.70;99.90;;;;;;4965174;28;20080;-85
2023/01/15 06:11:05;;;;;;;8.80;2.20;;;5.70;99.90;;;;;;4979308;28;20097;-85
2023/01/15 06:13:32;;;;;;;9.40;2.35;;;5.70;99.90;;;;;;4968127;28;20066;-85
2023/01/15 06:15:58;;;;;;;11.48;3.15;;;5.70;99.90;;;;;;5047647;27;20099;-85
2023/01/15 06:18:24;;;;;;;11.18;2.45;;;5.70;99.90;;;;;;5000275;28;20117;-84
2023/01/15 06:20:50;;;;;;;14.32;2.63;;;5.70;99.90;;;;;;4971952;28;20494;-86
2023/01/15 06:23:17;;;;;;;11.00;3.10;;;5.70;99.90;;;;;;4990218;28;20077;-84
2023/01/15 06:25:43;;;;;;;11.68;2.85;;;5.70;99.90;;;;;;4975863;28;20054;-85
2023/01/15 06:28:09;;;;;;;6.28;2.33;;;5.80;99.90;;;;;;5000200;28;20042;-85
2023/01/15 06:30:37;;;;;;;12.07;2.85;;;5.80;99.90;;;;;;4963758;28;20200;-84
2023/01/15 06:33:03;;;;;;;11.38;2.80;;;5.70;99.90;;;;;;4989064;28;20447;-85
2023/01/15 06:35:28;;;;;;;11.60;2.70;;;5.80;99.90;;;;;;5022196;28;20043;-85
2023/01/15 06:37:54;;;;;;;13.73;2.88;;;5.70;99.90;;;;;;4991748;28;20367;-85
2023/01/15 06:40:20;;;;;;;8.75;2.60;;;5.70;99.90;;;;;;5017988;28;20050;-84
2023/01/15 06:48:25;;;;;;;10.73;2.30;;;5.60;99.90;;;;;;4984464;28;20092;-85
2023/01/15 06:50:51;;;;;;;11.75;2.63;;;5.60;99.90;;;;;;4969209;28;20039;-84
2023/01/15 06:53:17;;;;;;;6.05;2.13;;;5.60;99.90;;;;;;4968446;28;20042;-84
2023/01/15 06:55:42;;;;;;;9.43;2.53;;;5.70;99.90;;;;;;4983493;28;20046;-84
2023/01/15 06:58:08;;;;;;;11.43;2.83;;;5.70;99.90;;;;;;4995419;28;20490;-85
2023/01/15 07:00:34;;;;;;;10.88;2.65;;;5.70;99.90;;;;;;4969597;28;20077;-84
2023/01/15 07:03:00;;;;;;;7.63;2.58;;;5.80;99.90;;;;;;4967572;28;20529;-85
2023/01/15 07:05:26;;;;;;;11.15;2.55;;;5.80;99.90;;;;;;4980033;28;20049;-85
2023/01/15 07:07:52;;;;;;;11.68;2.72;;;5.70;99.90;;;;;;5000265;28;20043;-84
2023/01/15 07:10:17;;;;;;;8.55;2.15;;;5.80;99.90;;;;;;4974266;28;20051;-85
2023/01/15 07:12:43;;;;;;;11.85;2.45;;;5.70;99.90;;;;;;4998566;28;20092;-85
2023/01/15 07:15:09;;;;;;;14.95;2.88;;;5.70;99.90;;;;;;4988831;28;20046;-84
2023/01/15 07:17:35;;;;;;;11.98;2.33;;;5.60;99.90;;;;;;4998386;28;20085;-85
2023/01/15 07:20:01;;;;;;;13.82;2.97;;;5.60;99.90;;;;;;4973387;28;20077;-85
2023/01/15 07:22:27;;;;;;;14.95;3.47;;;5.60;99.90;;;;;;4968992;28;20487;-85
2023/01/15 07:24:53;;;;;;;10.05;2.78;;;5.60;99.90;;;;;;4968847;28;20046;-85
2023/01/15 07:27:18;;;;;;;6.82;2.33;;;5.60;99.90;;;;;;5004823;28;20042;-85
2023/01/15 07:29:44;;;;;;;8.60;2.95;;;5.70;99.90;;;;;;5001835;28;20034;-84
2023/01/15 07:32:10;;;;;;;5.72;1.80;;;5.60;99.90;;;;;;4982836;28;20508;-84
2023/01/15 07:34:36;;;;;;;10.15;2.40;;;5.70;99.90;;;;;;4962946;28;20027;-85
2023/01/15 07:37:01;;;;;;;8.50;2.15;;;5.60;99.90;;;;;;5014409;28;20038;-85
2023/01/15 07:39:27;;;;;;;16.65;3.28;;;5.60;99.90;;;;;;4964864;28;20118;-86
2023/01/15 07:50:11;;;;;;;12.07;2.53;;;5.70;99.90;;;;;;5036303;28;20042;-85
2023/01/15 07:52:37;;;;;;;9.07;2.20;;;5.70;99.90;;;;;;4979558;28;20437;-86
2023/01/15 07:55:03;;;;;;;8.52;2.17;;;5.70;99.90;;;;;;5018474;28;20038;-86
2023/01/15 07:57:29;;;;;;;10.32;2.70;;;5.70;99.90;;;;;;5008945;28;20492;-84
2023/01/15 07:59:54;;;;;;;11.05;2.53;;;5.70;99.90;;;;;;4968724;28;20053;-84
2023/01/15 08:02:20;;;;;;;11.68;2.60;;;5.70;99.90;;;;;;4991325;28;20049;-86
2023/01/15 08:04:46;;;;;;;10.40;3.10;;;5.70;99.90;;;;;;4968034;28;20042;-85
2023/01/15 08:07:14;;;;;;;7.35;2.20;;;5.80;99.90;;;;;;4969968;28;20379;-84
2023/01/15 08:09:40;;;;;;;8.25;2.55;;;5.80;99.90;;;;;;4991012;28;20032;-84
2023/01/15 08:17:36;;;;;;;16.52;2.95;;;6.00;99.90;;;;;;4987208;28;20383;-85
2023/01/15 08:20:04;;;;;;;8.07;2.40;;;6.00;99.90;;;;;;4984791;28;20042;-84
2023/01/15 08:22:30;;;;;;;12.23;3.00;;;6.10;99.90;;;;;;4984997;28;20409;-85
2023/01/15 08:24:55;;;;;;;13.60;3.10;;;6.10;99.90;;;;;;5005725;28;20508;-85
2023/01/15 08:27:21;;;;;;;8.13;2.42;;;6.10;99.90;;;;;;5010565;28;20031;-85
2023/01/15 08:29:46;;;;;;;9.68;2.00;;;6.10;99.90;;;;;;4982393;28;20443;-84
2023/01/15 08:32:12;;;;;;;11.50;2.30;;;6.10;99.90;;;;;;4979624;28;20038;-85
2023/01/15 08:34:38;;;;;;;10.68;2.90;;;6.00;99.90;;;;;;4973442;28;20049;-84
2023/01/15 08:37:04;;;;;;;10.18;2.85;;;6.00;99.90;;;;;;4988803;28;20034;-85
2023/01/15 08:39:29;;;;;;;9.63;2.25;;;6.00;99.90;;;;;;5005445;28;20046;-85
2023/01/15 08:41:55;;;;;;;7.28;2.40;;;5.90;99.90;;;;;;4969320;28;20082;-85
2023/01/15 08:44:22;;;;;;;7.55;2.45;;;6.00;99.90;;;;;;4975035;28;20077;-84
2023/01/15 08:46:49;;;;;;;9.82;2.47;;;6.00;99.90;;;;;;4999524;28;20153;-84
2023/01/15 08:49:15;;;;;;;16.15;3.45;;;5.90;99.90;;;;;;5012199;28;20039;-85
2023/01/15 08:51:42;;;;;;;5.72;2.15;;;5.90;99.90;;;;;;4999392;28;20036;-84
2023/01/15 08:54:08;;;;;;;10.80;2.80;;;5.90;99.90;;;;;;5025073;28;20044;-84
2023/01/15 08:56:34;;;;;;;7.30;2.17;;;5.80;99.90;;;;;;4978048;28;20054;-84
2023/01/15 08:59:03;;;;;;;11.73;2.63;;;5.70;99.90;;;;;;4995534;28;20456;-84
2023/01/15 09:01:29;;;;;;;16.92;2.75;;;5.40;99.90;;;;;;4974880;28;20506;-85
2023/01/15 09:03:55;;;;;;;11.68;2.85;;;5.10;99.90;;;;;;5029716;27;20074;-85
2023/01/15 09:06:21;;;;;;;14.65;2.80;;;4.90;99.90;;;;;;4985191;28;20048;-85
2023/01/15 09:08:47;;;;;;;13.13;2.58;;;4.90;99.90;;;;;;4995180;28;20043;-85
2023/01/15 09:11:12;;;;;;;7.65;2.40;;;4.90;99.90;;;;;;4966475;28;20034;-85
2023/01/15 09:13:38;;;;;;;9.48;2.83;;;5.00;99.90;;;;;;4985423;28;20454;-84
2023/01/15 09:16:05;;;;;;;8.70;2.75;;;5.20;99.90;;;;;;4965481;28;20042;-86
2023/01/15 09:18:32;;;;;;;10.00;2.53;;;5.30;99.90;;;;;;4961227;28;20046;-85
2023/01/15 09:20:58;;;;;;;9.38;2.78;;;5.40;99.90;;;;;;4990126;28;20043;-84
2023/01/15 09:23:24;;;;;;;10.43;2.70;;;5.50;99.90;;;;;;4982080;28;20106;-84
2023/01/15 09:25:55;;;;;;;16.15;2.78;;;5.60;99.90;;;;;;4960929;28;20421;-85
2023/01/15 09:28:21;;;;;;;13.95;3.67;;;5.70;99.90;;;;;;5005472;28;20054;-84
2023/01/15 09:30:46;;;;;;;12.27;2.78;;;5.70;99.90;;;;;;4977897;28;20546;-84
2023/01/15 09:33:13;;;;;;;11.30;2.88;;;5.80;99.90;;;;;;4985980;28;20157;-85
2023/01/15 09:35:39;;;;;;;14.57;3.03;;;5.90;99.90;;;;;;4993292;28;20116;-85
2023/01/15 09:38:04;;;;;;;10.38;2.47;;;6.00;99.90;;;;;;4972107;28;20336;-85
2023/01/15 09:40:56;;;;;;;15.20;2.75;;;6.20;99.90;;;;;;5006180;28;20101;-85
2023/01/15 09:43:34;;;;;;;7.15;2.35;;;6.30;99.90;;;;;;5011991;28;20771;-84
2023/01/15 09:46:14;;;;;;;8.07;2.15;;;6.40;99.90;;;;;;4975308;28;20034;-85
2023/01/15 09:49:07;;;;;;;11.15;2.58;;;6.40;99.90;;;;;;4966577;28;20042;-84
2023/01/15 09:51:50;;;;;;;10.40;2.53;;;6.40;99.90;;;;;;5019023;28;20050;-85
2023/01/15 09:54:41;;;;;;;10.57;2.88;;;6.40;99.90;;;;;;4984912;28;20036;-85
2023/01/15 09:57:12;;;;;;;9.75;2.60;;;6.40;99.90;;;;;;4984769;28;20133;-84
2023/01/15 09:59:42;;;;;;;11.23;3.17;;;6.40;99.90;;;;;;4996933;28;20404;-84
2023/01/15 10:02:21;;;;;;;8.32;2.58;;;6.50;99.90;;;;;;5002847;28;20038;-85
2023/01/15 10:04:50;;;;;;;11.07;2.28;;;6.60;99.90;;;;;;4975998;28;20046;-85
2023/01/15 10:07:50;;;;;;;8.63;2.25;;;6.70;99.90;;;;;;4982122;28;20114;-84
2023/01/15 10:10:23;;;;;;;10.20;2.50;;;6.80;99.90;;;;;;4996944;28;20050;-85
2023/01/15 10:12:56;;;;;;;7.35;2.75;;;6.90;99.90;;;;;;4998862;28;20042;-84
2023/01/15 10:15:35;;;;;;;9.13;2.47;;;7.10;99.90;;;;;;5001260;28;20436;-84
2023/01/15 10:18:01;;;;;;;10.73;2.30;;;7.20;99.90;;;;;;5003552;28;20130;-85
2023/01/15 10:20:39;;;;;;;10.80;2.83;;;7.30;99.90;;;;;;4966385;28;20146;-84
2023/01/15 10:23:29;;;;;;;7.97;2.13;;;7.50;99.90;;;;;;5026246;28;20042;-84
2023/01/15 10:25:59;;;;;;;11.80;2.50;;;7.60;99.90;;;;;;4992806;28;20049;-84
2023/01/15 10:28:29;;;;;;;9.40;2.40;;;7.70;99.90;;;;;;4969726;28;20039;-84
2023/01/15 10:30:56;;;;;;;9.23;2.30;;;7.80;99.90;;;;;;4976240;28;20070;-84
2023/01/15 10:33:39;;;;;;;12.40;2.60;;;7.90;99.90;;;;;;4977554;28;20125;-84
2023/01/15 10:36:16;;;;;;;9.73;2.60;;;7.90;99.90;;;;;;4977635;28;20092;-84
2023/01/15 10:38:54;;;;;;;9.98;2.33;;;7.90;99.90;;;;;;4992626;28;20116;-84
2023/01/15 10:41:42;;;;;;;10.02;2.45;;;7.90;99.90;;;;;;4982646;28;20131;-83
2023/01/15 10:44:16;;;;;;;9.73;2.70;;;8.00;99.90;;;;;;4979903;28;20402;-84
2023/01/15 10:46:45;;;;;;;8.27;2.05;;;8.10;99.90;;;;;;5001032;28;20624;-84
2023/01/15 10:49:16;;;;;;;9.32;2.60;;;8.20;99.90;;;;;;5049744;27;20050;-83
2023/01/15 10:51:49;;;;;;;14.02;2.65;;;8.30;99.90;;;;;;5001992;28;20039;-83
2023/01/15 10:54:32;;;;;;;13.77;2.50;;;8.20;99.90;;;;;;5032823;28;20042;-84
2023/01/15 10:57:17;;;;;;;9.60;2.83;;;8.00;99.90;;;;;;5010815;28;20039;-84
2023/01/15 10:59:47;;;;;;;8.68;2.50;;;7.90;99.90;;;;;;5031050;28;20048;-83
2023/01/15 11:02:24;;;;;;;7.30;2.00;;;7.90;99.90;;;;;;4968484;28;20042;-84
2023/01/15 11:04:51;;;;;;;11.00;2.63;;;8.00;99.90;;;;;;4969757;28;20467;-83
2023/01/15 11:07:17;;;;;;;11.52;2.60;;;8.10;99.90;;;;;;4985394;28;20068;-83
2023/01/15 11:09:43;;;;;;;9.68;2.60;;;8.30;99.90;;;;;;4995396;28;20085;-83
2023/01/15 11:21:02;;;;;;;13.30;2.35;;;8.90;99.90;;;;;;4998033;28;20042;-83
2023/01/15 11:23:33;;;;;;;9.00;2.60;;;8.90;99.90;;;;;;4982210;28;20133;-83
2023/01/15 11:25:59;;;;;;;11.00;2.72;;;8.80;99.90;;;;;;4975840;28;20045;-83
2023/01/15 11:28:39;;;;;;;12.07;2.70;;;8.60;99.90;;;;;;4965137;28;20079;-83
2023/01/15 11:31:15;;;;;;;10.38;2.30;;;8.50;99.90;;;;;;4978318;28;20159;-83
2023/01/15 11:33:54;;;;;;;12.43;2.97;;;8.30;99.90;;;;;;4967382;28;20070;-83
2023/01/15 11:36:23;;;;;;;11.35;2.47;;;8.10;99.90;;;;;;4967113;28;20050;-83
2023/01/15 11:38:50;;;;;;;11.00;2.58;;;8.00;99.90;;;;;;4967231;28;20043;-82
2023/01/15 11:52:40;;;;;;;6.82;2.65;;;7.80;99.90;;;;;;5017189;28;19925;-84
2023/01/15 11:55:12;;;;;;;10.75;3.05;;;7.70;99.90;;;;;;4963684;28;20499;-83
2023/01/15 11:57:39;;;;;;;8.13;2.55;;;7.60;99.90;;;;;;4965257;28;20054;-83
2023/01/15 12:00:06;;;;;;;13.82;3.10;;;7.70;99.90;;;;;;4965751;28;20046;-83
2023/01/15 12:02:42;;;;;;;14.57;2.85;;;7.70;99.90;;;;;;4954475;28;20131;-83
2023/01/15 12:05:17;;;;;;;16.55;2.83;;;7.70;99.90;;;;;;4982902;28;20038;-83
2023/01/15 12:07:45;;;;;;;15.93;2.50;;;7.70;99.90;;;;;;4964920;28;20054;-83
2023/01/15 12:10:18;;;;;;;14.55;3.38;;;7.60;99.90;;;;;;4968914;28;20069;-84
2023/01/15 12:13:09;;;;;;;16.55;3.13;;;7.70;99.90;;;;;;4999450;28;20043;-83
2023/01/15 12:15:42;;;;;;;15.52;3.28;;;7.60;99.90;;;;;;5025782;28;20038;-84
2023/01/15 12:18:17;;;;;;;8.65;3.00;;;7.50;99.90;;;;;;4967789;28;20483;-83
2023/01/15 12:20:58;;;;;;;12.55;3.25;;;7.60;99.90;;;;;;4974785;28;20145;-84
2023/01/15 12:23:44;;;;;;;16.67;3.25;;;7.50;99.90;;;;;;4977808;28;20490;-84
2023/01/15 12:26:32;;;;;;;16.27;3.08;;;7.50;99.90;;;;;;5007369;28;20113;-84
2023/01/15 12:29:20;;;;;;;14.25;3.40;;;7.40;99.90;;;;;;4997735;28;20088;-84
2023/01/15 12:31:53;;;;;;;10.52;3.05;;;7.30;99.90;;;;;;5030570;28;20043;-83
2023/01/15 12:34:31;;;;;;;11.80;2.40;;;7.20;99.90;;;;;;4975894;28;20038;-83
2023/01/15 12:37:04;;;;;;;8.75;2.58;;;6.90;99.90;;;;;;4987927;28;20046;-82
2023/01/15 12:39:39;;;;;;;6.75;2.42;;;6.50;99.90;;;;;;5018755;28;20038;-83
2023/01/15 12:45:06;;;;;;;9.10;2.85;;;5.80;99.90;;;;;;4999417;28;20082;-83
2023/01/15 12:47:50;;;;;;;9.82;2.60;;;5.60;99.90;;;;;;4974308;28;20060;-83
2023/01/15 12:50:34;;;;;;;10.63;2.80;;;5.50;99.90;;;;;;4988807;28;20034;-83
2023/01/15 12:53:09;;;;;;;8.57;2.67;;;5.50;99.90;;;;;;4996737;28;20137;-82
2023/01/15 12:55:41;;;;;;;9.85;2.65;;;5.50;99.90;;;;;;4969746;28;20100;-83
2023/01/15 12:58:22;;;;;;;8.13;2.75;;;5.40;99.90;;;;;;5026574;28;20434;-83
2023/01/15 13:00:49;;;;;;;9.65;2.97;;;5.40;99.90;;;;;;4972550;28;20046;-83
2023/01/15 13:03:25;;;;;;;7.72;2.13;;;5.40;99.90;;;;;;4979272;28;20048;-84
2023/01/15 13:05:59;;;;;;;6.95;2.40;;;5.40;99.90;;;;;;4962489;28;20050;-83
2023/01/15 13:08:33;;;;;;;5.47;1.92;;;5.50;99.90;;;;;;4982240;28;20152;-83
2023/01/15 13:10:59;;;;;;;;;;;5.50;99.90;;;;;;4973969;28;20168;-83
2023/01/15 13:13:37;;;;;;;2.38;1.80;;;5.50;99.90;;;;;;4986659;28;20281;-83
2023/01/15 13:16:59;;;;;;;4.85;1.83;;;5.50;99.90;;;;;;4979480;28;20046;-84
2023/01/15 13:19:45;;;;;;;3.83;1.73;;;5.50;99.90;;;;;;5004472;28;20083;-84
2023/01/15 13:22:20;;;;;;;7.28;1.90;;;5.60;99.90;;;;;;4989151;28;20058;-83
2023/01/15 13:24:52;;;;;;;3.97;1.70;;;5.60;99.90;;;;;;4968603;28;20034;-84
2023/01/15 13:27:45;;;;;;;4.68;1.83;;;5.60;99.90;;;;;;4989163;28;20126;-84
2023/01/15 13:30:33;;;;;;;4.75;2.05;;;5.60;99.90;;;;;;4990000;28;20045;-84
2023/01/15 13:33:28;;;;;;;9.63;2.30;;;5.60;99.90;;;;;;4969625;28;20031;-84
2023/01/15 13:36:01;;;;;;;6.22;2.15;;;5.60;99.90;;;;;;5033479;27;20054;-83
2023/01/15 13:38:29;;;;;;;7.97;2.15;;;5.60;99.90;;;;;;4977295;28;20058;-84
2023/01/15 13:40:56;;;;;;;9.52;2.10;;;5.70;99.90;;;;;;4981506;28;20466;-83
2023/01/15 13:43:38;;;;;;;8.90;2.38;;;5.70;99.90;;;;;;4982813;28;20046;-84
2023/01/15 13:46:12;;;;;;;7.43;2.45;;;5.70;99.90;;;;;;4968356;28;20046;-84
2023/01/15 13:48:47;;;;;;;7.50;2.55;;;5.70;99.90;;;;;;4976686;28;20535;-84
2023/01/15 13:51:29;;;;;;;10.50;2.42;;;5.80;99.90;;;;;;4956238;28;20140;-84
2023/01/15 13:53:57;;;;;;;8.68;2.38;;;5.70;99.90;;;;;;4982987;28;20464;-85
2023/01/15 13:56:32;;;;;;;7.18;2.85;;;5.80;99.90;;;;;;4970144;28;20039;-84
2023/01/15 13:59:04;;;;;;;10.85;2.42;;;5.80;99.90;;;;;;4988299;28;20042;-84
2023/01/15 14:01:29;;;;;;;8.88;2.47;;;5.90;99.90;;;;;;4977377;28;20055;-83
2023/01/15 14:04:16;;;;;;;17.15;3.00;;;5.90;99.90;;;;;;4990018;28;20038;-84